createdAt,value
2019-02-03T00:00:34.207Z,108.30
2019-02-03T00:01:42.087Z,116.17
2019-02-03T00:02:46.522Z,117.40
2019-02-03T00:03:51.252Z,122.30
2019-02-03T00:04:55.741Z,114.43
2019-02-03T00:06:00.167Z,117.70
2019-02-03T00:07:04.686Z,131.33
2019-02-03T00:08:09.139Z,127.13
2019-02-03T00:09:17.681Z,123.10
2019-02-03T00:10:22.165Z,123.97
2019-02-03T00:11:26.566Z,120.70
2019-02-03T00:12:30.996Z,119.83
2019-02-03T00:13:35.497Z,125.37
2019-02-03T00:14:39.972Z,125.03
2019-02-03T00:15:44.421Z,124.33
2019-02-03T00:16:48.915Z,124.20
2019-02-03T00:17:53.504Z,130.50
2019-02-03T00:18:58.314Z,112.93
2019-02-03T00:20:02.745Z,118.83
2019-02-03T00:21:07.100Z,120.83
2019-02-03T00:22:11.532Z,125.53
2019-02-03T00:23:15.899Z,119.43
2019-02-03T00:24:20.411Z,111.87
2019-02-03T00:25:24.782Z,113.33
2019-02-03T00:26:29.239Z,121.83
2019-02-03T00:27:33.794Z,114.63
2019-02-03T00:28:38.140Z,116.53
2019-02-03T00:29:42.594Z,116.77
2019-02-03T00:30:47.111Z,119.10
2019-02-03T00:31:51.634Z,109.37
2019-02-03T00:32:56.199Z,108.87
2019-02-03T00:34:00.583Z,110.60
2019-02-03T00:35:05.771Z,117.40
2019-02-03T00:36:10.425Z,121.73
2019-02-03T00:37:17.416Z,105.23
2019-02-03T00:38:24.400Z,102.87
2019-02-03T00:39:27.292Z,109.20
2019-02-03T00:40:31.979Z,109.20
2019-02-03T00:41:36.448Z,109.73
2019-02-03T00:42:40.978Z,118.83
2019-02-03T00:43:45.388Z,116.47
2019-02-03T00:44:49.873Z,112.73
2019-02-03T00:45:54.497Z,109.13
2019-02-03T00:46:58.926Z,111.70
2019-02-03T00:48:03.356Z,112.40
2019-02-03T00:49:07.865Z,100.77
2019-02-03T00:50:12.645Z,110.03
2019-02-03T00:51:17.063Z,112.93
2019-02-03T00:52:21.536Z,104.13
2019-02-03T00:53:26.037Z,108.13
2019-02-03T00:54:30.484Z,101.17
2019-02-03T00:55:35.009Z,98.60
2019-02-03T00:56:39.634Z,110.47
2019-02-03T00:57:44.015Z,97.17
2019-02-03T00:58:48.834Z,106.50
2019-02-03T00:59:53.699Z,105.43
2019-02-03T01:00:58.176Z,108.20
2019-02-03T01:02:02.623Z,103.93
2019-02-03T01:03:07.106Z,103.43
2019-02-03T01:04:11.572Z,106.80
2019-02-03T01:05:17.025Z,115.77
2019-02-03T01:06:23.762Z,107.03
2019-02-03T01:07:29.401Z,108.43
2019-02-03T01:08:34.001Z,116.13
2019-02-03T01:09:38.474Z,99.20
2019-02-03T01:10:42.889Z,101.57
2019-02-03T01:11:47.304Z,107.37
2019-02-03T01:12:51.733Z,107.37
2019-02-03T01:13:56.182Z,110.10
2019-02-03T01:15:00.657Z,100.57
2019-02-03T01:16:05.210Z,109.50
2019-02-03T01:17:09.727Z,108.17
2019-02-03T01:18:14.449Z,107.40
2019-02-03T01:19:20.526Z,103.43
2019-02-03T01:20:25.102Z,100.73
2019-02-03T01:21:29.486Z,111.33
2019-02-03T01:22:33.882Z,107.83
2019-02-03T01:23:38.487Z,107.70
2019-02-03T01:24:42.915Z,104.73
2019-02-03T01:25:47.322Z,101.93
2019-02-03T01:26:51.721Z,103.07
2019-02-03T01:27:56.297Z,97.83
2019-02-03T01:29:00.888Z,104.57
2019-02-03T01:30:06.863Z,104.90
2019-02-03T01:31:11.301Z,114.23
2019-02-03T01:32:16.123Z,109.27
2019-02-03T01:33:20.623Z,114.00
2019-02-03T01:34:25.041Z,105.57
2019-02-03T01:35:29.491Z,101.27
2019-02-03T01:36:34.044Z,105.30
2019-02-03T01:37:41.572Z,108.27
2019-02-03T01:38:46.462Z,99.40
2019-02-03T01:39:50.868Z,106.30
2019-02-03T01:40:55.372Z,117.83
2019-02-03T01:41:59.825Z,109.10
2019-02-03T01:43:04.355Z,102.10
2019-02-03T01:44:08.804Z,107.17
2019-02-03T01:45:17.924Z,107.90
2019-02-03T01:46:22.422Z,90.33
2019-02-03T01:47:26.927Z,109.07
2019-02-03T01:48:31.470Z,103.30
2019-02-03T01:49:35.959Z,96.53
2019-02-03T01:50:40.812Z,98.70
2019-02-03T01:51:45.230Z,98.40
2019-02-03T01:52:49.758Z,101.70
2019-02-03T01:53:54.773Z,94.23
2019-02-03T01:54:59.365Z,108.57
2019-02-03T01:56:03.765Z,104.73
2019-02-03T01:57:08.268Z,100.23
2019-02-03T01:58:12.734Z,105.20
2019-02-03T01:59:17.327Z,100.63
2019-02-03T02:00:23.973Z,99.57
2019-02-03T02:01:28.404Z,107.20
2019-02-03T02:02:32.901Z,100.40
2019-02-03T02:03:37.532Z,106.87
2019-02-03T02:04:41.893Z,98.03
2019-02-03T02:05:46.285Z,103.50
2019-02-03T02:06:53.013Z,100.87
2019-02-03T02:07:56.866Z,101.10
2019-02-03T02:09:01.474Z,98.87
2019-02-03T02:10:06.428Z,100.70
2019-02-03T02:11:10.994Z,102.97
2019-02-03T02:12:15.458Z,108.33
2019-02-03T02:13:19.886Z,101.33
2019-02-03T02:14:24.374Z,96.13
2019-02-03T02:15:28.874Z,101.23
2019-02-03T02:16:33.318Z,91.47
2019-02-03T02:17:37.840Z,100.93
2019-02-03T02:18:42.725Z,92.00
2019-02-03T02:19:47.403Z,93.47
2019-02-03T02:20:52.033Z,97.33
2019-02-03T02:21:56.576Z,96.33
2019-02-03T02:23:01.160Z,92.77
2019-02-03T02:24:05.694Z,93.93
2019-02-03T02:25:10.612Z,103.97
2019-02-03T02:26:15.152Z,100.10
2019-02-03T02:27:19.555Z,97.77
2019-02-03T02:28:24.244Z,107.37
2019-02-03T02:29:28.689Z,93.23
2019-02-03T02:30:33.089Z,92.73
2019-02-03T02:31:37.679Z,101.10
2019-02-03T02:32:42.111Z,101.13
2019-02-03T02:33:46.586Z,106.43
2019-02-03T02:34:51.137Z,100.70
2019-02-03T02:35:55.809Z,97.37
2019-02-03T02:37:00.625Z,97.87
2019-02-03T02:38:07.149Z,108.93
2019-02-03T02:39:11.732Z,100.93
2019-02-03T02:40:26.893Z,99.70
2019-02-03T02:41:31.697Z,95.47
2019-02-03T02:42:36.184Z,117.60
2019-02-03T02:43:40.588Z,104.63
2019-02-03T02:44:45.159Z,104.20
2019-02-03T02:45:49.722Z,105.67
2019-02-03T02:46:54.154Z,104.40
2019-02-03T02:47:58.926Z,120.97
2019-02-03T02:49:03.494Z,104.53
2019-02-03T02:50:10.540Z,114.63
2019-02-03T02:51:15.053Z,105.33
2019-02-03T02:52:19.545Z,112.03
2019-02-03T02:53:23.989Z,107.03
2019-02-03T02:54:28.507Z,98.63
2019-02-03T02:55:33.001Z,110.67
2019-02-03T02:56:37.668Z,115.60
2019-02-03T02:57:44.811Z,102.43
2019-02-03T02:58:49.466Z,110.13
2019-02-03T02:59:54.012Z,107.37
2019-02-03T03:00:59.185Z,105.40
2019-02-03T03:02:03.864Z,109.13
2019-02-03T03:03:08.306Z,94.53
2019-02-03T03:04:15.079Z,102.77
2019-02-03T03:05:19.615Z,109.70
2019-02-03T03:06:24.047Z,99.77
2019-02-03T03:07:28.603Z,108.93
2019-02-03T03:08:33.204Z,94.10
2019-02-03T03:09:37.668Z,93.53
2019-02-03T03:10:42.198Z,107.03
2019-02-03T03:11:46.622Z,97.20
2019-02-03T03:12:51.033Z,107.00
2019-02-03T03:13:55.603Z,106.03
2019-02-03T03:15:00.341Z,104.97
2019-02-03T03:16:05.209Z,96.23
2019-02-03T03:17:09.626Z,93.37
2019-02-03T03:18:14.175Z,96.40
2019-02-03T03:19:18.678Z,111.17
2019-02-03T03:20:23.387Z,99.03
2019-02-03T03:21:28.248Z,107.33
2019-02-03T03:22:32.658Z,104.23
2019-02-03T03:23:37.101Z,105.30
2019-02-03T03:24:41.701Z,102.90
2019-02-03T03:25:46.458Z,106.47
2019-02-03T03:26:51.037Z,100.93
2019-02-03T03:27:55.491Z,103.93
2019-02-03T03:29:00.005Z,99.80
2019-02-03T03:30:06.170Z,102.23
2019-02-03T03:31:10.997Z,103.17
2019-02-03T03:32:15.508Z,96.50
2019-02-03T03:33:19.991Z,90.90
2019-02-03T03:34:24.502Z,103.13
2019-02-03T03:35:28.887Z,93.77
2019-02-03T03:36:33.433Z,96.10
2019-02-03T03:37:37.863Z,87.13
2019-02-03T03:38:42.385Z,88.83
2019-02-03T03:39:47.189Z,82.77
2019-02-03T03:40:51.868Z,91.20
2019-02-03T03:41:56.460Z,97.53
2019-02-03T03:43:00.971Z,98.77
2019-02-03T03:44:05.513Z,94.70
2019-02-03T03:45:10.271Z,97.37
2019-02-03T03:46:14.901Z,104.20
2019-02-03T03:47:19.436Z,94.60
2019-02-03T03:48:23.841Z,87.53
2019-02-03T03:49:28.286Z,93.53
2019-02-03T03:50:32.839Z,90.60
2019-02-03T03:51:37.305Z,95.90
2019-02-03T03:52:41.728Z,84.93
2019-02-03T03:53:48.935Z,92.30
2019-02-03T03:54:53.359Z,89.17
2019-02-03T03:55:57.861Z,86.77
2019-02-03T03:57:02.484Z,92.77
2019-02-03T03:58:07.071Z,93.77
2019-02-03T03:59:11.770Z,92.33
2019-02-03T04:00:21.377Z,89.07
2019-02-03T04:01:26.163Z,97.50
2019-02-03T04:02:30.560Z,91.43
2019-02-03T04:03:34.995Z,90.43
2019-02-03T04:04:39.459Z,86.57
2019-02-03T04:05:45.680Z,92.43
2019-02-03T04:06:50.109Z,91.40
2019-02-03T04:07:54.636Z,91.20
2019-02-03T04:08:59.058Z,91.60
2019-02-03T04:10:03.693Z,93.60
2019-02-03T04:11:08.138Z,94.60
2019-02-03T04:12:12.592Z,90.53
2019-02-03T04:13:17.028Z,106.60
2019-02-03T04:14:21.528Z,101.43
2019-02-03T04:15:26.039Z,98.20
2019-02-03T04:16:30.486Z,95.73
2019-02-03T04:17:34.891Z,94.57
2019-02-03T04:18:39.467Z,101.03
2019-02-03T04:19:44.271Z,100.27
2019-02-03T04:20:49.152Z,104.20
2019-02-03T04:21:53.696Z,97.07
2019-02-03T04:22:58.622Z,92.03
2019-02-03T04:24:03.394Z,96.87
2019-02-03T04:25:07.901Z,109.87
2019-02-03T04:26:12.325Z,111.97
2019-02-03T04:27:16.933Z,110.97
2019-02-03T04:28:21.329Z,122.73
2019-02-03T04:29:25.792Z,112.83
2019-02-03T04:30:30.293Z,102.37
2019-02-03T04:31:34.723Z,122.33
2019-02-03T04:32:39.269Z,112.57
2019-02-03T04:33:43.810Z,106.40
2019-02-03T04:34:48.318Z,112.87
2019-02-03T04:35:52.803Z,99.53
2019-02-03T04:36:57.247Z,112.63
2019-02-03T04:38:01.778Z,123.30
2019-02-03T04:39:08.264Z,104.20
2019-02-03T04:40:15.232Z,109.63
2019-02-03T04:41:19.608Z,110.77
2019-02-03T04:42:24.076Z,102.90
2019-02-03T04:43:28.577Z,109.70
2019-02-03T04:44:33.087Z,120.07
2019-02-03T04:45:37.615Z,109.70
2019-02-03T04:46:42.090Z,117.57
2019-02-03T04:47:47.127Z,119.93
2019-02-03T04:48:51.629Z,110.97
2019-02-03T04:49:55.982Z,107.93
2019-02-03T04:51:00.416Z,112.67
2019-02-03T04:52:04.762Z,117.53
2019-02-03T04:53:09.182Z,112.53
2019-02-03T04:54:13.700Z,111.10
2019-02-03T04:55:19.192Z,115.93
2019-02-03T04:56:23.767Z,113.17
2019-02-03T04:57:28.191Z,102.00
2019-02-03T04:58:32.891Z,114.43
2019-02-03T04:59:37.658Z,124.77
2019-02-03T05:00:42.080Z,102.23
2019-02-03T05:01:46.826Z,111.77
2019-02-03T05:02:51.460Z,121.17
2019-02-03T05:03:55.920Z,99.70
2019-02-03T05:05:00.488Z,123.03
2019-02-03T05:06:04.863Z,108.77
2019-02-03T05:07:09.300Z,112.87
2019-02-03T05:08:13.854Z,115.90
2019-02-03T05:09:18.409Z,109.87
2019-02-03T05:10:23.005Z,112.53
2019-02-03T05:11:27.524Z,116.87
2019-02-03T05:12:32.060Z,127.33
2019-02-03T05:13:36.517Z,120.33
2019-02-03T05:14:40.933Z,114.00
2019-02-03T05:15:45.400Z,116.63
2019-02-03T05:16:49.928Z,121.10
2019-02-03T05:17:54.733Z,121.60
2019-02-03T05:18:59.273Z,122.20
2019-02-03T05:20:03.940Z,104.67
2019-02-03T05:21:08.405Z,115.70
2019-02-03T05:22:12.921Z,114.23
2019-02-03T05:23:17.336Z,114.87
2019-02-03T05:24:21.768Z,112.30
2019-02-03T05:25:26.205Z,113.03
2019-02-03T05:26:30.670Z,114.20
2019-02-03T05:27:35.150Z,114.67
2019-02-03T05:28:39.555Z,110.60
2019-02-03T05:29:43.923Z,108.70
2019-02-03T05:30:48.416Z,106.87
2019-02-03T05:31:52.825Z,111.67
2019-02-03T05:32:57.336Z,118.30
2019-02-03T05:34:02.115Z,100.20
2019-02-03T05:35:06.857Z,93.30
2019-02-03T05:36:11.701Z,108.07
2019-02-03T05:37:16.119Z,96.37
2019-02-03T05:38:20.771Z,101.40
2019-02-03T05:39:25.717Z,90.03
2019-02-03T05:40:30.270Z,97.40
2019-02-03T05:41:35.740Z,91.93
2019-02-03T05:42:40.188Z,91.00
2019-02-03T05:43:44.640Z,89.47
2019-02-03T05:44:49.029Z,97.03
2019-02-03T05:45:53.612Z,103.73
2019-02-03T05:46:58.171Z,97.47
2019-02-03T05:48:02.965Z,102.93
2019-02-03T05:49:07.441Z,96.07
2019-02-03T05:50:13.139Z,96.03
2019-02-03T05:51:17.589Z,91.37
2019-02-03T05:52:21.976Z,90.37
2019-02-03T05:53:26.405Z,88.63
2019-02-03T05:54:34.164Z,94.77
2019-02-03T05:55:38.732Z,94.30
2019-02-03T05:56:43.521Z,98.17
2019-02-03T05:57:50.727Z,87.33
2019-02-03T05:58:55.196Z,93.40
2019-02-03T05:59:59.742Z,80.77
2019-02-03T06:01:04.164Z,80.10
2019-02-03T06:02:10.142Z,81.80
2019-02-03T06:03:14.625Z,85.43
2019-02-03T06:04:19.020Z,88.80
2019-02-03T06:05:23.527Z,79.50
2019-02-03T06:06:28.827Z,79.67
2019-02-03T06:07:33.193Z,88.60
2019-02-03T06:08:37.610Z,80.80
2019-02-03T06:09:41.986Z,79.43
2019-02-03T06:10:46.609Z,72.83
2019-02-03T06:11:54.377Z,75.90
2019-02-03T06:12:58.956Z,83.97
2019-02-03T06:14:04.202Z,72.23
2019-02-03T06:15:08.844Z,79.23
2019-02-03T06:16:16.593Z,74.37
2019-02-03T06:17:21.241Z,70.00
2019-02-03T06:18:25.944Z,69.77
2019-02-03T06:19:32.454Z,68.80
2019-02-03T06:20:37.134Z,72.77
2019-02-03T06:21:41.630Z,72.00
2019-02-03T06:22:46.568Z,71.60
2019-02-03T06:23:53.499Z,71.03
2019-02-03T06:24:59.907Z,73.63
2019-02-03T06:26:04.511Z,72.47
2019-02-03T06:27:08.938Z,72.87
2019-02-03T06:28:13.602Z,65.13
2019-02-03T06:29:18.057Z,62.07
2019-02-03T06:31:18.981Z,69.37
2019-02-03T06:32:23.497Z,69.93
2019-02-03T06:33:28.041Z,66.33
2019-02-03T06:34:32.452Z,73.23
2019-02-03T06:35:36.873Z,73.73
2019-02-03T06:36:41.884Z,69.63
2019-02-03T06:37:46.414Z,71.73
2019-02-03T06:38:51.865Z,70.97
2019-02-03T06:39:58.976Z,69.20
2019-02-03T06:41:04.025Z,66.00
2019-02-03T06:42:08.596Z,66.43
2019-02-03T06:43:13.413Z,71.97
2019-02-03T06:44:17.793Z,60.60
2019-02-03T06:45:31.720Z,68.93
2019-02-03T06:46:45.675Z,69.30
2019-02-03T06:47:51.013Z,72.67
2019-02-03T06:48:58.010Z,61.90
2019-02-03T06:50:03.117Z,61.73
2019-02-03T06:51:12.508Z,63.27
2019-02-03T06:52:19.164Z,64.60
2019-02-03T06:53:23.807Z,61.27
2019-02-03T06:54:29.761Z,58.53
2019-02-03T06:55:34.192Z,55.33
2019-02-03T06:56:38.615Z,58.10
2019-02-03T06:57:43.252Z,55.70
2019-02-03T06:58:47.782Z,55.93
2019-02-03T06:59:54.757Z,51.17
2019-02-03T07:00:59.360Z,57.27
2019-02-03T07:02:04.039Z,50.37
2019-02-03T07:03:08.552Z,56.37
2019-02-03T07:04:14.797Z,49.73
2019-02-03T07:05:19.301Z,49.17
2019-02-03T07:06:24.047Z,43.13
2019-02-03T07:07:28.971Z,50.33
2019-02-03T07:08:33.531Z,42.40
2019-02-03T07:09:38.024Z,43.90
2019-02-03T07:10:44.757Z,44.27
2019-02-03T07:11:49.137Z,39.33
2019-02-03T07:12:53.795Z,45.20
2019-02-03T07:13:58.652Z,39.53
2019-02-03T07:15:03.119Z,43.93
2019-02-03T07:16:07.567Z,44.70
2019-02-03T07:17:12.229Z,45.77
2019-02-03T07:18:16.756Z,43.73
2019-02-03T07:19:21.184Z,38.33
2019-02-03T07:20:25.735Z,38.87
2019-02-03T07:21:30.260Z,35.87
2019-02-03T07:22:34.723Z,36.70
2019-02-03T07:23:40.429Z,45.23
2019-02-03T07:24:45.144Z,32.57
2019-02-03T07:25:49.836Z,40.80
2019-02-03T07:26:54.678Z,39.20
2019-02-03T07:27:59.040Z,41.13
2019-02-03T07:29:03.573Z,31.73
2019-02-03T07:30:10.285Z,31.23
2019-02-03T07:31:14.835Z,30.70
2019-02-03T07:32:19.286Z,38.47
2019-02-03T07:33:24.330Z,35.00
2019-02-03T07:34:28.802Z,35.43
2019-02-03T07:35:33.249Z,34.03
2019-02-03T07:36:37.762Z,33.93
2019-02-03T07:37:42.332Z,37.90
2019-02-03T07:38:46.799Z,36.23
2019-02-03T07:39:51.326Z,31.17
2019-02-03T07:40:55.870Z,29.70
2019-02-03T07:42:00.337Z,30.30
2019-02-03T07:43:04.842Z,27.37
2019-02-03T07:44:09.389Z,30.73
2019-02-03T07:45:14.414Z,32.87
2019-02-03T07:46:19.262Z,33.03
2019-02-03T07:47:23.942Z,32.43
2019-02-03T07:48:28.386Z,29.47
2019-02-03T07:49:32.911Z,27.53
2019-02-03T07:50:37.465Z,31.10
2019-02-03T07:51:41.841Z,28.77
2019-02-03T07:52:46.265Z,26.97
2019-02-03T07:53:51.051Z,27.53
2019-02-03T07:54:55.725Z,28.03
2019-02-03T07:56:00.203Z,26.70
2019-02-03T07:57:04.732Z,30.03
2019-02-03T07:58:12.180Z,30.00
2019-02-03T07:59:15.524Z,23.97
2019-02-03T08:00:20.009Z,28.20
2019-02-03T08:01:24.524Z,27.07
2019-02-03T08:02:29.051Z,24.53
2019-02-03T08:03:33.591Z,24.10
2019-02-03T08:04:38.357Z,24.37
2019-02-03T08:05:42.762Z,23.23
2019-02-03T08:06:47.288Z,27.20
2019-02-03T08:07:51.733Z,24.53
2019-02-03T08:08:56.416Z,23.00
2019-02-03T08:10:01.099Z,23.20
2019-02-03T08:11:05.455Z,20.03
2019-02-03T08:12:09.917Z,25.20
2019-02-03T08:13:14.443Z,23.27
2019-02-03T08:14:18.892Z,23.80
2019-02-03T08:15:23.573Z,21.17
2019-02-03T08:16:28.141Z,23.60
2019-02-03T08:17:32.641Z,21.23
2019-02-03T08:18:37.061Z,22.63
2019-02-03T08:19:41.602Z,23.57
2019-02-03T08:20:46.046Z,19.30
2019-02-03T08:21:50.600Z,21.77
2019-02-03T08:22:55.761Z,19.33
2019-02-03T08:24:00.281Z,20.10
2019-02-03T08:25:05.658Z,21.27
2019-02-03T08:26:10.163Z,22.57
2019-02-03T08:27:14.670Z,21.47
2019-02-03T08:28:19.274Z,23.10
2019-02-03T08:29:23.824Z,24.60
2019-02-03T08:30:28.487Z,23.07
2019-02-03T08:31:32.957Z,22.70
2019-02-03T08:32:37.346Z,22.63
2019-02-03T08:33:41.910Z,19.27
2019-02-03T08:34:46.525Z,24.60
2019-02-03T08:35:51.116Z,21.87
2019-02-03T08:36:55.648Z,20.13
2019-02-03T08:38:00.260Z,21.17
2019-02-03T08:39:07.855Z,19.67
2019-02-03T08:40:16.517Z,17.43
2019-02-03T08:41:20.902Z,19.97
2019-02-03T08:42:25.599Z,20.30
2019-02-03T08:43:30.273Z,16.47
2019-02-03T08:44:34.743Z,22.03
2019-02-03T08:45:39.273Z,18.03
2019-02-03T08:46:43.772Z,18.30
2019-02-03T08:47:48.249Z,18.27
2019-02-03T08:48:52.691Z,18.67
2019-02-03T08:49:57.193Z,17.73
2019-02-03T08:51:01.729Z,19.83
2019-02-03T08:52:07.977Z,17.97
2019-02-03T08:53:12.469Z,15.43
2019-02-03T08:54:17.037Z,15.03
2019-02-03T08:55:21.557Z,15.37
2019-02-03T08:56:26.064Z,19.33
2019-02-03T08:57:33.528Z,16.17
2019-02-03T08:58:37.992Z,15.53
2019-02-03T08:59:42.399Z,11.93
2019-02-03T09:00:46.776Z,14.13
2019-02-03T09:01:51.441Z,14.03
2019-02-03T09:02:56.413Z,14.40
2019-02-03T09:04:00.840Z,13.90
2019-02-03T09:05:06.746Z,10.80
2019-02-03T09:06:11.171Z,15.57
2019-02-03T09:07:15.601Z,14.50
2019-02-03T09:08:20.031Z,12.93
2019-02-03T09:09:24.537Z,11.57
2019-02-03T09:10:28.967Z,10.80
2019-02-03T09:11:33.427Z,14.50
2019-02-03T09:12:37.827Z,13.17
2019-02-03T09:13:42.278Z,11.10
2019-02-03T09:14:46.694Z,15.17
2019-02-03T09:15:51.969Z,12.50
2019-02-03T09:16:56.593Z,15.63
2019-02-03T09:18:01.066Z,15.97
2019-02-03T09:19:05.492Z,10.20
2019-02-03T09:20:15.709Z,10.97
2019-02-03T09:21:20.129Z,12.80
2019-02-03T09:22:24.767Z,13.87
2019-02-03T09:23:29.609Z,10.10
2019-02-03T09:24:34.082Z,13.20
2019-02-03T09:25:38.472Z,10.77
2019-02-03T09:26:42.972Z,11.43
2019-02-03T09:27:47.543Z,12.20
2019-02-03T09:28:51.981Z,10.60
2019-02-03T09:29:56.790Z,12.97
2019-02-03T09:31:01.356Z,13.27
2019-02-03T09:32:06.105Z,16.60
2019-02-03T09:33:10.618Z,14.27
2019-02-03T09:34:15.141Z,11.43
2019-02-03T09:35:19.540Z,12.60
2019-02-03T09:36:23.951Z,11.07
2019-02-03T09:37:29.666Z,10.93
2019-02-03T09:38:34.322Z,11.80
2019-02-03T09:39:38.790Z,11.83
2019-02-03T09:40:43.273Z,12.37
2019-02-03T09:41:48.086Z,11.30
2019-02-03T09:42:52.683Z,14.60
2019-02-03T09:43:57.528Z,9.93
2019-02-03T09:45:02.000Z,11.27
2019-02-03T09:46:06.859Z,11.93
2019-02-03T09:47:11.316Z,11.70
2019-02-03T09:48:15.849Z,13.30
2019-02-03T09:49:20.297Z,14.13
2019-02-03T09:50:26.389Z,11.70
2019-02-03T09:51:30.851Z,12.43
2019-02-03T09:52:35.347Z,17.93
2019-02-03T09:53:39.847Z,12.13
2019-02-03T09:54:44.342Z,12.70
2019-02-03T09:55:48.864Z,11.03
2019-02-03T09:56:53.444Z,13.00
2019-02-03T09:58:01.404Z,10.57
2019-02-03T09:59:06.123Z,15.53
2019-02-03T10:00:17.112Z,12.77
2019-02-03T10:01:21.558Z,11.70
2019-02-03T10:02:26.311Z,11.10
2019-02-03T10:03:31.055Z,9.53
2019-02-03T10:04:35.472Z,10.97
2019-02-03T10:05:40.009Z,11.23
2019-02-03T10:06:44.480Z,11.13
2019-02-03T10:07:49.004Z,10.90
2019-02-03T10:08:53.507Z,10.50
2019-02-03T10:09:58.510Z,11.83
2019-02-03T10:11:11.678Z,11.27
2019-02-03T10:12:09.683Z,12.17
2019-02-03T10:13:14.336Z,12.20
2019-02-03T10:14:18.832Z,12.27
2019-02-03T10:15:23.457Z,9.97
2019-02-03T10:16:27.996Z,14.50
2019-02-03T10:17:32.389Z,15.00
2019-02-03T10:18:36.814Z,10.97
2019-02-03T10:19:41.327Z,10.17
2019-02-03T10:20:45.780Z,11.70
2019-02-03T10:21:50.694Z,10.10
2019-02-03T10:22:55.270Z,12.10
2019-02-03T10:23:59.785Z,13.13
2019-02-03T10:25:05.304Z,8.73
2019-02-03T10:26:10.218Z,10.37
2019-02-03T10:27:14.927Z,10.27
2019-02-03T10:28:19.353Z,11.80
2019-02-03T10:29:23.881Z,9.63
2019-02-03T10:30:28.618Z,10.53
2019-02-03T10:31:33.165Z,8.37
2019-02-03T10:32:37.688Z,10.20
2019-02-03T10:33:42.055Z,12.10
2019-02-03T10:34:46.541Z,10.27
2019-02-03T10:35:50.976Z,8.57
2019-02-03T10:36:55.640Z,13.37
2019-02-03T10:38:00.316Z,7.90
2019-02-03T10:39:08.306Z,10.43
2019-02-03T10:40:16.198Z,11.57
2019-02-03T10:41:24.015Z,10.37
2019-02-03T10:42:26.902Z,8.83
2019-02-03T10:43:31.708Z,9.67
2019-02-03T10:44:36.343Z,8.50
2019-02-03T10:45:40.833Z,10.87
2019-02-03T10:46:45.240Z,6.73
2019-02-03T10:47:49.754Z,11.80
2019-02-03T10:48:54.390Z,9.17
2019-02-03T10:50:01.395Z,9.37
2019-02-03T10:51:05.559Z,8.83
2019-02-03T10:52:10.195Z,8.73
2019-02-03T10:53:14.873Z,7.13
2019-02-03T10:54:19.331Z,7.97
2019-02-03T10:55:23.830Z,9.97
2019-02-03T10:56:28.384Z,9.63
2019-02-03T10:57:32.960Z,7.93
2019-02-03T10:58:37.465Z,9.50
2019-02-03T10:59:41.996Z,7.43
2019-02-03T11:00:46.862Z,7.67
2019-02-03T11:01:51.304Z,10.13
2019-02-03T11:02:55.884Z,9.60
2019-02-03T11:04:01.955Z,10.17
2019-02-03T11:05:09.094Z,9.87
2019-02-03T11:06:13.626Z,10.27
2019-02-03T11:07:18.249Z,8.53
2019-02-03T11:08:22.688Z,8.50
2019-02-03T11:09:27.269Z,9.17
2019-02-03T11:10:31.850Z,7.20
2019-02-03T11:11:37.084Z,12.13
2019-02-03T11:12:41.644Z,8.00
2019-02-03T11:13:46.318Z,9.73
2019-02-03T11:14:51.857Z,8.90
2019-02-03T11:15:56.490Z,7.97
2019-02-03T11:17:00.932Z,9.23
2019-02-03T11:18:05.914Z,7.43
2019-02-03T11:19:10.935Z,11.10
2019-02-03T11:20:23.814Z,9.47
2019-02-03T11:21:28.631Z,5.00
2019-02-03T11:22:33.197Z,7.83
2019-02-03T11:23:37.814Z,8.93
2019-02-03T11:24:42.873Z,8.30
2019-02-03T11:25:47.265Z,8.60
2019-02-03T11:26:51.854Z,7.93
2019-02-03T11:27:59.133Z,6.63
2019-02-03T11:29:03.693Z,6.70
2019-02-03T11:30:14.879Z,7.43
2019-02-03T11:31:19.392Z,5.40
2019-02-03T11:32:24.036Z,7.07
2019-02-03T11:33:28.621Z,6.20
2019-02-03T11:34:33.120Z,9.10
2019-02-03T11:35:37.792Z,5.73
2019-02-03T11:36:42.438Z,6.27
2019-02-03T11:37:46.909Z,11.03
2019-02-03T11:38:51.554Z,9.73
2019-02-03T11:39:56.372Z,7.30
2019-02-03T11:41:00.872Z,8.23
2019-02-03T11:42:05.349Z,7.93
2019-02-03T11:43:09.848Z,7.73
2019-02-03T11:44:14.341Z,6.37
2019-02-03T11:45:22.016Z,6.07
2019-02-03T11:46:26.532Z,6.00
2019-02-03T11:47:30.948Z,5.80
2019-02-03T11:48:35.436Z,6.27
2019-02-03T11:49:39.891Z,6.30
2019-02-03T11:50:44.658Z,8.50
2019-02-03T11:51:49.143Z,6.87
2019-02-03T11:52:53.605Z,7.17
2019-02-03T11:53:58.298Z,7.87
2019-02-03T11:55:02.917Z,4.67
2019-02-03T11:56:07.517Z,6.90
2019-02-03T11:57:12.154Z,6.17
2019-02-03T11:58:16.624Z,7.60
2019-02-03T11:59:21.480Z,4.97
2019-02-03T12:00:27.484Z,6.93
2019-02-03T12:01:32.030Z,8.97
2019-02-03T12:02:41.861Z,6.83
2019-02-03T12:03:42.569Z,7.77
2019-02-03T12:04:47.062Z,6.90
2019-02-03T12:05:51.547Z,6.67
2019-02-03T12:06:55.983Z,6.70
2019-02-03T12:08:02.162Z,7.13
2019-02-03T12:09:09.064Z,6.03
2019-02-03T12:10:17.573Z,7.27
2019-02-03T12:11:21.984Z,6.97
2019-02-03T12:12:26.396Z,8.03
2019-02-03T12:13:30.874Z,7.03
2019-02-03T12:14:35.340Z,8.53
2019-02-03T12:15:39.939Z,7.87
2019-02-03T12:16:44.388Z,7.20
2019-02-03T12:17:49.181Z,6.87
2019-02-03T12:18:53.574Z,6.30
2019-02-03T12:19:58.037Z,5.03
2019-02-03T12:21:03.146Z,6.13
2019-02-03T12:22:07.895Z,6.73
2019-02-03T12:23:12.544Z,9.27
2019-02-03T12:24:16.963Z,7.83
2019-02-03T12:25:26.803Z,7.20
2019-02-03T12:26:31.286Z,5.87
2019-02-03T12:27:35.679Z,9.07
2019-02-03T12:28:40.076Z,9.00
2019-02-03T12:29:44.518Z,8.77
2019-02-03T12:30:49.119Z,7.17
2019-02-03T12:31:53.615Z,7.90
2019-02-03T12:32:58.335Z,6.83
2019-02-03T12:34:02.966Z,7.30
2019-02-03T12:35:09.497Z,6.40
2019-02-03T12:36:14.170Z,8.10
2019-02-03T12:37:18.744Z,10.33
2019-02-03T12:38:23.236Z,7.63
2019-02-03T12:39:27.902Z,8.90
2019-02-03T12:40:33.175Z,5.97
2019-02-03T12:41:37.518Z,7.30
2019-02-03T12:42:42.084Z,6.97
2019-02-03T12:43:46.810Z,8.77
2019-02-03T12:44:51.242Z,6.80
2019-02-03T12:45:55.684Z,5.80
2019-02-03T12:47:00.114Z,7.03
2019-02-03T12:48:06.067Z,10.13
2019-02-03T12:49:10.609Z,5.90
2019-02-03T12:50:16.459Z,5.53
2019-02-03T12:51:20.892Z,8.73
2019-02-03T12:52:25.348Z,5.93
2019-02-03T12:53:29.771Z,7.27
2019-02-03T12:54:34.205Z,5.50
2019-02-03T12:55:38.734Z,7.77
2019-02-03T12:56:43.380Z,9.63
2019-02-03T12:57:48.071Z,7.97
2019-02-03T12:58:52.672Z,5.47
2019-02-03T12:59:57.158Z,6.63
2019-02-03T13:01:01.794Z,9.03
2019-02-03T13:02:06.788Z,5.33
2019-02-03T13:03:11.355Z,8.50
2019-02-03T13:04:15.947Z,7.83
2019-02-03T13:05:21.678Z,5.33
2019-02-03T13:06:26.173Z,5.37
2019-02-03T13:07:30.870Z,8.03
2019-02-03T13:08:35.466Z,6.50
2019-02-03T13:09:39.963Z,5.37
2019-02-03T13:10:44.506Z,9.53
2019-02-03T13:11:49.074Z,5.10
2019-02-03T13:12:53.724Z,7.13
2019-02-03T13:13:58.274Z,5.40
2019-02-03T13:15:02.749Z,7.97
2019-02-03T13:16:07.364Z,6.20
2019-02-03T13:17:12.065Z,7.30
2019-02-03T13:18:16.556Z,7.07
2019-02-03T13:19:21.171Z,7.17
2019-02-03T13:20:26.876Z,5.23
2019-02-03T13:21:31.695Z,5.23
2019-02-03T13:22:36.524Z,5.53
2019-02-03T13:23:44.884Z,6.33
2019-02-03T13:24:47.835Z,5.73
2019-02-03T13:25:52.388Z,5.37
2019-02-03T13:26:56.947Z,5.27
2019-02-03T13:28:01.885Z,4.97
2019-02-03T13:29:25.509Z,5.83
2019-02-03T13:30:32.343Z,5.03
2019-02-03T13:31:36.925Z,8.53
2019-02-03T13:32:41.511Z,5.63
2019-02-03T13:33:48.683Z,6.73
2019-02-03T13:34:54.059Z,9.17
2019-02-03T13:35:58.605Z,5.53
2019-02-03T13:37:03.502Z,6.53
2019-02-03T13:38:08.729Z,7.77
2019-02-03T13:39:16.639Z,7.63
2019-02-03T13:40:24.086Z,8.13
2019-02-03T13:41:30.310Z,7.00
2019-02-03T13:42:37.299Z,8.53
2019-02-03T13:43:41.013Z,6.07
2019-02-03T13:44:45.633Z,6.57
2019-02-03T13:45:50.534Z,4.93
2019-02-03T13:46:55.111Z,6.83
2019-02-03T13:47:59.821Z,7.53
2019-02-03T13:49:04.423Z,6.10
2019-02-03T13:50:10.734Z,8.30
2019-02-03T13:51:15.225Z,6.20
2019-02-03T13:52:21.577Z,5.70
2019-02-03T13:53:26.184Z,6.17
2019-02-03T13:54:31.875Z,6.17